Time;durP1;ratioP1;P1;durP2;ratioP2;P2;SDS_P1;SDS_P2;PMS_P1;PMS_P2;Temp;Humidity;BMP_temperature;BMP_pressure;BME280_temperature;BME280_humidity;BME280_pressure;Samples;Min_cycle;Max_cycle;Signal;HPM_P1;HPM_P2
2020/12/20 00:01:43;;;;;;;11.90;5.15;;;9.00;99.90;;;;;;10034290;29;20085;-93
2020/12/20 00:06:45;;;;;;;7.28;4.63;;;8.80;99.90;;;;;;10002647;29;20083;-93
2020/12/20 00:11:56;;;;;;;11.85;5.35;;;8.80;99.90;;;;;;10017983;29;20064;-93
2020/12/20 00:17:03;;;;;;;10.27;5.43;;;8.80;99.90;;;;;;10018999;29;20185;-93
2020/12/20 00:22:10;;;;;;;9.50;4.80;;;8.70;99.90;;;;;;9995081;29;20475;-93
2020/12/20 00:27:12;;;;;;;8.73;6.07;;;8.50;99.90;;;;;;9995426;29;20057;-93
2020/12/20 00:32:13;;;;;;;;;;;8.50;99.90;;;;;;9995362;29;20111;-94
2020/12/20 00:37:15;;;;;;;10.05;5.32;;;8.70;99.90;;;;;;10026130;29;20010;-94
2020/12/20 00:42:16;;;;;;;7.03;5.57;;;8.60;99.90;;;;;;10046520;29;20090;-94
2020/12/20 00:47:18;;;;;;;8.75;5.63;;;8.60;99.90;;;;;;10032840;29;20088;-93
2020/12/20 00:52:20;;;;;;;7.90;4.88;;;8.70;99.90;;;;;;10017039;29;20053;-93
2020/12/20 00:57:21;;;;;;;13.63;5.90;;;8.80;99.90;;;;;;10032786;29;20062;-93
2020/12/20 01:02:23;;;;;;;10.48;5.50;;;8.80;99.90;;;;;;10016971;29;20121;-93
2020/12/20 01:07:25;;;;;;;13.10;4.97;;;8.30;99.90;;;;;;10031896;29;20065;-93
2020/12/20 01:12:26;;;;;;;8.73;5.45;;;8.60;99.90;;;;;;10047306;29;20164;-94
2020/12/20 01:17:28;;;;;;;12.20;5.82;;;9.00;99.90;;;;;;10031534;29;20065;-94
2020/12/20 01:22:31;;;;;;;6.28;4.95;;;8.40;99.90;;;;;;10046464;29;20145;-94
2020/12/20 01:27:32;;;;;;;6.28;5.32;;;8.10;99.90;;;;;;10030395;29;20144;-93
2020/12/20 01:32:34;;;;;;;10.65;5.82;;;8.80;99.90;;;;;;10045198;29;20141;-93
2020/12/20 01:37:35;;;;;;;;;;;8.30;99.90;;;;;;10042548;29;20114;-93
2020/12/20 01:42:37;;;;;;;11.07;5.00;;;8.40;99.90;;;;;;9991023;29;19931;-93
2020/12/20 01:47:40;;;;;;;8.25;5.00;;;8.30;99.90;;;;;;9979188;29;20081;-94
2020/12/20 01:52:42;;;;;;;10.85;4.97;;;8.40;99.90;;;;;;10007960;29;20054;-93
2020/12/20 01:57:43;;;;;;;8.50;5.10;;;8.40;99.90;;;;;;10016842;29;20144;-93
2020/12/20 02:02:44;;;;;;;12.30;5.72;;;8.30;99.90;;;;;;10045362;29;20076;-93
2020/12/20 02:07:47;;;;;;;10.02;5.30;;;8.20;99.90;;;;;;10030264;29;20505;-93
2020/12/20 02:12:49;;;;;;;9.45;4.95;;;8.20;99.90;;;;;;10029726;29;20064;-93
2020/12/20 02:17:50;;;;;;;;;;;8.20;99.90;;;;;;10030847;29;20080;-93
2020/12/20 02:22:58;;;;;;;8.30;5.93;;;8.20;99.90;;;;;;10029669;29;20011;-93
2020/12/20 02:28:00;;;;;;;6.80;4.80;;;8.30;99.90;;;;;;10029230;29;20081;-93
2020/12/20 02:33:01;;;;;;;7.07;4.68;;;8.80;99.90;;;;;;10038623;29;20107;-93
2020/12/20 02:38:03;;;;;;;10.85;4.90;;;8.20;99.90;;;;;;10010732;29;20054;-94
2020/12/20 02:43:05;;;;;;;9.35;4.80;;;8.70;99.90;;;;;;10029645;29;20458;-93
2020/12/20 02:48:06;;;;;;;8.60;5.20;;;8.40;99.90;;;;;;10029569;29;20070;-93
2020/12/20 02:53:08;;;;;;;7.45;5.40;;;8.20;99.90;;;;;;10043778;29;20081;-93
2020/12/20 02:58:10;;;;;;;10.10;6.18;;;8.10;99.90;;;;;;10028864;29;20070;-93
2020/12/20 03:03:12;;;;;;;7.70;4.57;;;8.10;99.90;;;;;;10043594;29;20063;-93
2020/12/20 03:08:13;;;;;;;;;;;8.20;99.90;;;;;;10032235;29;20061;-93
2020/12/20 03:13:15;;;;;;;6.65;4.95;;;8.00;99.90;;;;;;10035880;29;19930;-93
2020/12/20 03:18:16;;;;;;;8.30;5.30;;;8.00;99.90;;;;;;10020623;29;20066;-93
2020/12/20 03:23:27;;;;;;;13.00;5.57;;;8.00;99.90;;;;;;10052027;29;20062;-93
2020/12/20 03:28:28;;;;;;;7.65;5.38;;;8.30;99.90;;;;;;10035761;29;20058;-94
2020/12/20 03:33:30;;;;;;;10.98;5.72;;;8.50;99.90;;;;;;10038698;29;20524;-93
2020/12/20 03:38:31;;;;;;;;;;;8.90;99.90;;;;;;9982480;29;20061;-93
2020/12/20 03:43:33;;;;;;;7.82;4.78;;;8.60;99.90;;;;;;9996422;29;20292;-93
2020/12/20 03:48:35;;;;;;;14.95;6.18;;;8.20;99.90;;;;;;10012462;29;20065;-93
2020/12/20 03:53:47;;;;;;;;;;;8.20;99.90;;;;;;9986354;29;20058;-93
2020/12/20 03:58:49;;;;;;;8.07;5.03;;;8.30;99.90;;;;;;9996442;29;19924;-94
2020/12/20 04:03:51;;;;;;;9.75;5.10;;;8.50;99.90;;;;;;9996144;29;20517;-93
2020/12/20 04:08:52;;;;;;;8.52;6.05;;;8.40;99.90;;;;;;9981022;29;20072;-93
2020/12/20 04:13:55;;;;;;;7.72;5.60;;;8.50;99.90;;;;;;10010795;29;20140;-94
2020/12/20 04:18:57;;;;;;;7.75;4.35;;;8.40;99.90;;;;;;9994255;29;20137;-93
2020/12/20 04:24:05;;;;;;;10.73;4.57;;;8.70;99.90;;;;;;9997127;29;20058;-94
2020/12/20 04:29:06;;;;;;;14.57;5.78;;;8.40;99.90;;;;;;10013438;24;20050;-93
2020/12/20 04:34:08;;;;;;;7.55;4.38;;;8.80;99.90;;;;;;10017926;29;20060;-93
2020/12/20 04:39:09;;;;;;;15.13;6.10;;;8.70;99.90;;;;;;10018008;29;20471;-94
2020/12/20 04:44:11;;;;;;;10.60;4.13;;;8.80;99.90;;;;;;10017615;29;20061;-94
2020/12/20 04:49:14;;;;;;;6.38;3.90;;;8.60;99.90;;;;;;10032474;29;20092;-94
2020/12/20 04:54:26;;;;;;;14.57;4.63;;;8.90;99.90;;;;;;10021255;29;20421;-94
2020/12/20 04:59:30;;;;;;;15.10;4.40;;;8.80;99.90;;;;;;10019487;29;20144;-94
2020/12/20 05:04:34;;;;;;;12.60;3.90;;;9.00;99.90;;;;;;10032119;29;20134;-92
2020/12/20 05:09:47;;;;;;;13.38;4.28;;;8.80;99.90;;;;;;10016926;29;20062;-94
2020/12/20 05:14:49;;;;;;;14.48;4.47;;;8.80;99.90;;;;;;10031051;29;20053;-93
2020/12/20 05:19:50;;;;;;;;;;;8.50;99.90;;;;;;10016732;29;20062;-93
2020/12/20 05:24:52;;;;;;;10.82;3.97;;;8.90;99.90;;;;;;10062102;29;19959;-95
2020/12/20 05:30:15;;;;;;;7.57;4.97;;;8.90;99.90;;;;;;10030577;29;20057;-94
2020/12/20 05:35:17;;;;;;;8.25;4.55;;;8.30;99.90;;;;;;10030355;29;20054;-93
2020/12/20 05:40:28;;;;;;;12.13;5.15;;;8.50;99.90;;;;;;10016008;29;20062;-94
2020/12/20 05:45:33;;;;;;;9.52;3.67;;;8.70;99.90;;;;;;10030951;29;20144;-93
2020/12/20 05:50:35;;;;;;;9.30;4.53;;;8.40;99.90;;;;;;10030580;29;20140;-92
2020/12/20 05:55:40;;;;;;;12.00;5.90;;;8.30;99.90;;;;;;10000776;29;20081;-94
2020/12/20 06:00:44;;;;;;;11.65;4.30;;;7.80;99.90;;;;;;10030422;29;20517;-93
2020/12/20 06:05:47;;;;;;;8.30;3.83;;;8.00;99.90;;;;;;10014748;29;20065;-93
2020/12/20 06:10:52;;;;;;;10.32;4.65;;;8.40;99.90;;;;;;10029687;29;20053;-94
2020/12/20 06:15:57;;;;;;;12.38;5.50;;;7.90;99.90;;;;;;10029936;29;20136;-94
2020/12/20 06:21:03;;;;;;;9.93;5.82;;;8.00;99.90;;;;;;10015253;29;20073;-94
2020/12/20 06:26:05;;;;;;;7.97;4.40;;;7.90;99.90;;;;;;10029960;29;20500;-93
2020/12/20 06:31:07;;;;;;;13.25;4.45;;;7.60;99.90;;;;;;9968747;29;20131;-94
2020/12/20 06:36:12;;;;;;;10.15;3.72;;;8.20;99.90;;;;;;9969069;29;20397;-94
2020/12/20 06:41:35;;;;;;;13.82;4.35;;;8.40;99.90;;;;;;9970050;29;20094;-94
2020/12/20 06:46:38;;;;;;;13.60;4.32;;;7.90;99.90;;;;;;9976832;29;20092;-94
2020/12/20 06:51:39;;;;;;;11.45;4.80;;;8.30;99.90;;;;;;9990729;29;20066;-94
2020/12/20 06:56:42;;;;;;;13.13;4.90;;;7.90;99.90;;;;;;9976726;29;20058;-94
2020/12/20 07:01:43;;;;;;;11.43;5.00;;;7.70;99.90;;;;;;9946216;29;20498;-93
2020/12/20 07:07:17;;;;;;;11.70;5.38;;;7.70;99.90;;;;;;9931050;29;20430;-93
2020/12/20 07:12:32;;;;;;;15.75;5.13;;;7.70;99.90;;;;;;9955412;29;20080;-93
2020/12/20 07:17:45;;;;;;;13.88;6.18;;;7.70;99.90;;;;;;9945580;29;20122;-93
2020/12/20 07:22:49;;;;;;;14.05;4.97;;;7.80;99.90;;;;;;9975314;29;20517;-94
2020/12/20 07:27:51;;;;;;;14.60;5.10;;;8.20;99.90;;;;;;9980542;29;20058;-94
2020/12/20 07:32:53;;;;;;;15.43;5.70;;;7.50;99.90;;;;;;10005465;29;20087;-93
2020/12/20 07:37:56;;;;;;;14.23;6.30;;;7.90;99.90;;;;;;10034562;29;20065;-93
2020/12/20 07:43:01;;;;;;;15.93;5.03;;;7.90;99.90;;;;;;10020802;29;20065;-94
2020/12/20 07:48:02;;;;;;;15.23;4.75;;;7.80;99.90;;;;;;10034607;29;20140;-94
2020/12/20 07:53:04;;;;;;;;;;;7.70;99.90;;;;;;10036041;29;20064;-93
2020/12/20 07:58:06;;;;;;;15.98;5.97;;;7.70;99.90;;;;;;10019715;29;19931;-94
2020/12/20 08:03:08;;;;;;;12.75;4.32;;;8.40;99.90;;;;;;10034229;29;20058;-94
2020/12/20 08:08:09;;;;;;;18.98;4.65;;;7.70;99.90;;;;;;10004377;29;20083;-94
2020/12/20 08:13:10;;;;;;;15.82;4.68;;;8.20;99.90;;;;;;10018039;29;20140;-94
2020/12/20 08:18:12;;;;;;;12.23;6.00;;;8.50;99.90;;;;;;10019414;29;20132;-93
2020/12/20 08:23:14;;;;;;;10.68;4.57;;;8.20;99.90;;;;;;10003597;29;20481;-93
2020/12/20 08:28:16;;;;;;;9.00;4.63;;;8.20;99.90;;;;;;10018836;29;20069;-93
2020/12/20 08:33:33;;;;;;;14.73;4.68;;;8.00;99.90;;;;;;10018271;29;20054;-93
2020/12/20 08:38:38;;;;;;;19.30;4.32;;;8.40;99.90;;;;;;10019571;29;20065;-93
2020/12/20 08:43:39;;;;;;;12.27;4.30;;;8.80;99.90;;;;;;10017714;29;20069;-93
2020/12/20 08:48:41;;;;;;;18.92;5.55;;;8.70;99.90;;;;;;10002941;29;20058;-93
2020/12/20 08:53:42;;;;;;;17.48;3.90;;;9.00;99.90;;;;;;10002960;29;20057;-93
2020/12/20 08:58:48;;;;;;;;;;;8.60;99.90;;;;;;10033059;29;20148;-93
2020/12/20 09:03:53;;;;;;;15.52;4.95;;;8.60;99.90;;;;;;10031777;29;19924;-93
2020/12/20 09:08:55;;;;;;;15.43;4.70;;;8.70;99.90;;;;;;10032329;29;20148;-93
2020/12/20 09:14:09;;;;;;;13.70;3.95;;;8.90;99.90;;;;;;10031421;29;20414;-91
2020/12/20 09:19:14;;;;;;;17.52;4.75;;;8.90;99.90;;;;;;10033310;29;20057;-93
2020/12/20 09:24:16;;;;;;;13.55;4.05;;;9.50;99.90;;;;;;10032080;29;20065;-93
2020/12/20 09:29:18;;;;;;;11.38;4.93;;;9.10;99.90;;;;;;10001102;29;20076;-93
2020/12/20 09:34:40;;;;;;;17.35;4.50;;;9.10;99.90;;;;;;10032389;29;20057;-93
2020/12/20 09:39:59;;;;;;;20.97;5.27;;;8.90;99.90;;;;;;10015766;29;20497;-92
2020/12/20 09:45:00;;;;;;;15.65;4.13;;;9.00;99.90;;;;;;10016073;29;20089;-92
2020/12/20 09:50:03;;;;;;;12.80;4.40;;;9.50;99.90;;;;;;10000364;29;20114;-92
2020/12/20 09:55:07;;;;;;;18.30;4.72;;;9.30;99.90;;;;;;10015511;29;20061;-93
2020/12/20 10:00:08;;;;;;;15.70;4.53;;;9.20;99.90;;;;;;10030233;29;20073;-92
2020/12/20 10:05:10;;;;;;;13.10;3.75;;;9.60;99.90;;;;;;10030967;29;20144;-93
2020/12/20 10:10:11;;;;;;;16.55;4.32;;;9.30;99.90;;;;;;10015616;29;20072;-93
2020/12/20 10:15:14;;;;;;;17.58;6.10;;;9.30;99.90;;;;;;10031892;29;20065;-92
2020/12/20 10:20:16;;;;;;;22.67;4.63;;;9.50;99.90;;;;;;10015189;29;20113;-92
2020/12/20 10:25:18;;;;;;;19.08;3.63;;;9.40;99.90;;;;;;10031053;29;20072;-93
2020/12/20 10:30:20;;;;;;;15.68;4.13;;;9.50;99.90;;;;;;10013880;29;20061;-93
2020/12/20 10:35:27;;;;;;;21.63;5.35;;;10.00;99.90;;;;;;10029057;29;20057;-93
2020/12/20 10:40:29;;;;;;;12.57;3.92;;;9.70;99.90;;;;;;10030271;29;20060;-93
2020/12/20 10:45:30;;;;;;;19.20;4.95;;;9.80;99.90;;;;;;9999521;29;20076;-93
2020/12/20 10:50:32;;;;;;;17.10;4.75;;;10.00;99.90;;;;;;10014079;29;20501;-93
2020/12/20 10:55:33;;;;;;;19.60;4.53;;;9.80;99.90;;;;;;10030330;29;20128;-93
2020/12/20 11:00:35;;;;;;;17.48;4.88;;;10.00;99.90;;;;;;10014227;29;20062;-93
2020/12/20 11:05:40;;;;;;;13.65;4.20;;;9.70;99.90;;;;;;10015335;29;20493;-93
2020/12/20 11:10:41;;;;;;;11.60;3.95;;;9.80;99.90;;;;;;10013880;29;20498;-93
2020/12/20 11:15:46;;;;;;;18.73;5.55;;;10.00;99.90;;;;;;9998767;29;20141;-93
2020/12/20 11:20:48;;;;;;;14.82;4.80;;;9.80;99.90;;;;;;10029767;29;20461;-93
2020/12/20 11:25:49;;;;;;;14.48;4.05;;;9.90;99.90;;;;;;10014152;29;20085;-93
2020/12/20 11:30:51;;;;;;;;;;;10.10;99.90;;;;;;10004738;29;20232;-92
2020/12/20 11:35:52;;;;;;;9.63;4.13;;;9.70;99.90;;;;;;10049804;29;19924;-92
2020/12/20 11:40:54;;;;;;;21.17;4.47;;;9.90;99.90;;;;;;10021557;29;20085;-92
2020/12/20 11:45:55;;;;;;;21.95;4.68;;;9.90;99.90;;;;;;10005461;29;20057;-93
2020/12/20 11:50:57;;;;;;;16.30;3.90;;;9.90;99.90;;;;;;10034451;29;20140;-92
2020/12/20 11:55:59;;;;;;;15.45;5.20;;;10.00;99.90;;;;;;10020905;29;20064;-92
2020/12/20 12:01:01;;;;;;;29.40;5.25;;;9.90;99.90;;;;;;10019871;29;20081;-93
2020/12/20 12:06:03;;;;;;;16.35;5.28;;;10.00;99.90;;;;;;10049981;29;20152;-93
2020/12/20 12:11:04;;;;;;;18.63;5.07;;;9.90;99.90;;;;;;10033456;29;20064;-92
2020/12/20 12:16:06;;;;;;;15.63;4.40;;;9.90;99.90;;;;;;10033354;29;20144;-92
2020/12/20 12:21:13;;;;;;;16.13;5.07;;;9.90;99.90;;;;;;10019032;29;20069;-92
2020/12/20 12:26:18;;;;;;;22.75;4.22;;;10.50;99.90;;;;;;10035414;29;20493;-93
2020/12/20 12:31:19;;;;;;;19.73;4.13;;;10.20;99.90;;;;;;9995470;29;20141;-92
2020/12/20 12:36:27;;;;;;;18.02;5.05;;;9.90;99.90;;;;;;9994842;29;20054;-92
2020/12/20 12:41:29;;;;;;;13.85;4.68;;;10.00;99.90;;;;;;9995017;29;20068;-91
2020/12/20 12:46:31;;;;;;;17.55;4.15;;;10.10;99.90;;;;;;10010482;29;20070;-92
2020/12/20 12:51:32;;;;;;;14.48;5.10;;;9.90;99.90;;;;;;9994310;29;20145;-92
2020/12/20 12:56:34;;;;;;;23.85;5.03;;;10.30;99.90;;;;;;9979918;29;20064;-92
2020/12/20 13:01:35;;;;;;;18.67;4.97;;;10.20;99.90;;;;;;9981151;29;20058;-92
2020/12/20 13:06:38;;;;;;;18.23;5.07;;;10.10;99.90;;;;;;9980296;29;20418;-93
2020/12/20 13:11:40;;;;;;;14.60;5.40;;;10.30;99.90;;;;;;9979478;29;20064;-93
2020/12/20 13:16:49;;;;;;;19.73;4.88;;;10.00;99.90;;;;;;10008758;29;20557;-92
2020/12/20 13:21:50;;;;;;;14.35;4.68;;;10.00;99.90;;;;;;9993564;29;20089;-91
2020/12/20 13:26:52;;;;;;;18.88;5.72;;;9.80;99.90;;;;;;9993415;29;20430;-92
2020/12/20 13:31:54;;;;;;;13.40;4.60;;;10.00;99.90;;;;;;9992418;29;20068;-93
2020/12/20 13:36:55;;;;;;;;;;;10.00;99.90;;;;;;9993903;29;20065;-92
2020/12/20 13:41:57;;;;;;;32.25;4.95;;;10.00;99.90;;;;;;10007657;29;20273;-92
2020/12/20 13:46:58;;;;;;;19.95;5.00;;;9.90;99.90;;;;;;10007423;29;20497;-92
2020/12/20 13:52:00;;;;;;;16.92;4.40;;;10.20;99.90;;;;;;9977495;29;20077;-92
2020/12/20 13:57:02;;;;;;;17.27;4.60;;;9.90;99.90;;;;;;9992557;29;20057;-92
2020/12/20 14:02:03;;;;;;;;;;;10.20;99.90;;;;;;10007857;29;20058;-92
2020/12/20 14:07:05;;;;;;;21.55;5.40;;;9.80;99.90;;;;;;9992144;29;20022;-92
2020/12/20 18:18:36;;;;;;;22.03;5.13;;;7.50;99.90;;;;;;10087055;29;20072;-93
2020/12/20 18:23:38;;;;;;;24.02;5.85;;;8.00;99.90;;;;;;10035876;29;20636;-93
2020/12/20 18:28:40;;;;;;;21.98;5.07;;;8.00;99.90;;;;;;10007840;29;20077;-92
2020/12/20 18:33:41;;;;;;;20.23;5.22;;;8.00;99.90;;;;;;9992748;29;20110;-93
2020/12/20 18:38:43;;;;;;;12.93;5.65;;;8.00;99.90;;;;;;9995569;29;20707;-92
2020/12/20 18:43:45;;;;;;;13.85;4.22;;;7.80;99.90;;;;;;9999396;29;20102;-92
2020/12/20 18:48:46;;;;;;;;;;;7.40;99.90;;;;;;10014122;29;20495;-92
2020/12/20 18:53:48;;;;;;;12.68;4.50;;;7.60;99.90;;;;;;10028776;29;19924;-92
2020/12/20 18:58:50;;;;;;;16.88;5.57;;;7.70;99.90;;;;;;10014379;29;20145;-93
2020/12/20 19:03:51;;;;;;;;;;;7.50;99.90;;;;;;9985865;29;20560;-92
2020/12/20 19:08:53;;;;;;;15.40;5.18;;;6.60;99.90;;;;;;9975359;29;20373;-92
2020/12/20 19:13:55;;;;;;;;;;;6.90;99.90;;;;;;9975981;29;20061;-92
2020/12/20 19:18:57;;;;;;;18.98;7.78;;;7.10;99.90;;;;;;9980314;29;20380;-92
2020/12/20 19:23:59;;;;;;;16.23;5.20;;;6.60;99.90;;;;;;10035905;29;20084;-92
2020/12/20 19:29:01;;;;;;;23.35;6.38;;;7.00;99.90;;;;;;10035495;29;20058;-92
2020/12/20 19:34:04;;;;;;;19.20;7.07;;;7.50;99.90;;;;;;10035807;29;20077;-92
2020/12/20 19:39:07;;;;;;;16.20;5.95;;;7.20;99.90;;;;;;10034987;29;20060;-92
2020/12/20 19:44:09;;;;;;;17.83;5.75;;;6.70;99.90;;;;;;10035644;29;20069;-92
2020/12/20 19:49:11;;;;;;;28.50;6.90;;;7.20;99.90;;;;;;10034412;29;20069;-92
2020/12/20 19:54:13;;;;;;;13.77;5.32;;;6.80;99.90;;;;;;10019469;29;20140;-92
2020/12/20 19:59:16;;;;;;;16.85;5.47;;;6.90;99.90;;;;;;10019599;29;20062;-93
2020/12/20 20:04:17;;;;;;;12.18;5.25;;;7.20;99.90;;;;;;10034377;29;20505;-92
2020/12/20 20:09:19;;;;;;;15.15;5.30;;;7.20;99.90;;;;;;10034732;29;20125;-92
2020/12/20 20:26:45;;;;;;;18.23;4.72;;;6.70;99.90;;;;;;10095858;29;20128;-93
2020/12/20 20:31:46;;;;;;;23.77;6.15;;;6.50;99.90;;;;;;10032363;29;20065;-92
2020/12/20 20:36:49;;;;;;;;;;;6.50;99.90;;;;;;10031642;29;20144;-93
2020/12/20 20:41:51;;;;;;;19.58;6.20;;;6.20;99.90;;;;;;10043340;29;19928;-93
2020/12/20 20:46:52;;;;;;;23.23;6.15;;;6.10;99.90;;;;;;10032541;29;20085;-94
2020/12/20 20:51:54;;;;;;;23.02;5.55;;;6.40;99.90;;;;;;10016718;29;20061;-93
2020/12/20 20:56:56;;;;;;;21.02;5.85;;;6.10;99.90;;;;;;10032795;29;20132;-93
2020/12/20 21:01:57;;;;;;;23.23;7.05;;;6.00;99.90;;;;;;10032149;29;20062;-94
2020/12/20 21:06:59;;;;;;;21.77;5.47;;;6.30;99.90;;;;;;10032527;29;20485;-93
2020/12/20 21:12:01;;;;;;;22.70;5.28;;;6.40;99.90;;;;;;10032411;29;20513;-93
2020/12/20 21:17:03;;;;;;;21.10;7.05;;;6.50;99.90;;;;;;10031740;29;20141;-94
2020/12/20 21:22:06;;;;;;;16.70;6.20;;;6.50;99.90;;;;;;10031466;29;20081;-94
2020/12/20 21:27:07;;;;;;;19.80;7.00;;;6.40;99.90;;;;;;10031228;29;20061;-93
2020/12/20 21:32:09;;;;;;;24.52;7.45;;;6.50;99.90;;;;;;10016386;29;20069;-94
2020/12/20 21:37:11;;;;;;;;;;;6.50;99.90;;;;;;10015762;29;20089;-93
2020/12/20 21:42:13;;;;;;;13.98;5.97;;;6.40;99.90;;;;;;10046019;29;20027;-94
2020/12/20 21:47:15;;;;;;;22.73;7.47;;;6.70;99.90;;;;;;10031270;29;20053;-94
2020/12/20 21:52:17;;;;;;;18.95;6.43;;;6.50;99.90;;;;;;10030726;29;20444;-94
2020/12/20 21:57:18;;;;;;;19.48;6.68;;;6.80;99.90;;;;;;10029949;29;20058;-93
2020/12/20 22:02:20;;;;;;;15.45;7.05;;;6.60;99.90;;;;;;10030730;29;20061;-93
2020/12/20 22:07:22;;;;;;;17.10;5.75;;;6.50;99.90;;;;;;10053820;29;20142;-94
2020/12/20 22:12:23;;;;;;;13.88;5.78;;;6.30;99.90;;;;;;10068490;29;20140;-93
2020/12/20 22:17:24;;;;;;;20.20;7.18;;;5.90;99.90;;;;;;10083307;29;20056;-94
2020/12/20 22:22:26;;;;;;;15.65;6.03;;;6.20;99.90;;;;;;10067197;29;20073;-94
2020/12/20 22:27:27;;;;;;;20.65;6.63;;;6.70;99.90;;;;;;10061327;29;20113;-94
2020/12/20 22:32:30;;;;;;;16.48;7.07;;;6.40;99.90;;;;;;10052200;29;20509;-95
2020/12/20 22:37:32;;;;;;;18.25;6.60;;;6.20;99.90;;;;;;10083753;29;20081;-95
2020/12/20 22:42:34;;;;;;;;;;;6.20;99.90;;;;;;10083497;29;20077;-94
2020/12/20 22:47:37;;;;;;;17.42;7.05;;;6.60;99.90;;;;;;10068103;29;19940;-94
2020/12/20 22:52:41;;;;;;;18.65;6.45;;;6.50;99.90;;;;;;10082697;29;20476;-93
2020/12/20 22:57:42;;;;;;;24.00;7.35;;;6.60;99.90;;;;;;10098287;29;20084;-93
2020/12/20 23:02:44;;;;;;;18.92;7.15;;;6.70;99.90;;;;;;10051922;29;20068;-94
2020/12/20 23:07:45;;;;;;;13.20;5.75;;;6.30;99.90;;;;;;10068684;29;20088;-93
2020/12/20 23:12:46;;;;;;;22.40;7.38;;;6.90;99.90;;;;;;10066945;29;20137;-94
2020/12/20 23:17:48;;;;;;;21.38;6.63;;;6.90;99.90;;;;;;10082154;29;20057;-94
2020/12/20 23:22:50;;;;;;;19.42;8.23;;;6.30;99.90;;;;;;10067790;29;20064;-93
2020/12/20 23:27:52;;;;;;;19.05;6.90;;;6.40;99.90;;;;;;10054729;29;20066;-94
2020/12/20 23:32:53;;;;;;;16.75;6.88;;;6.50;99.90;;;;;;10020568;29;20053;-94
2020/12/20 23:37:55;;;;;;;19.20;7.45;;;6.40;99.90;;;;;;10035229;29;20140;-95
2020/12/20 23:42:56;;;;;;;;;;;6.30;99.90;;;;;;10051303;29;20118;-94
2020/12/20 23:47:58;;;;;;;17.52;6.03;;;6.30;99.90;;;;;;10065647;29;19931;-94
2020/12/20 23:52:59;;;;;;;18.85;7.50;;;5.90;99.90;;;;;;10035019;29;20085;-94
2020/12/20 23:58:01;;;;;;;22.20;7.22;;;5.70;99.90;;;;;;10050401;29;20061;-94
